Time;durP1;ratioP1;P1;durP2;ratioP2;P2;SDS_P1;SDS_P2;PMS_P1;PMS_P2;Temp;Humidity;BMP_temperature;BMP_pressure;BME280_temperature;BME280_humidity;BME280_pressure;Samples;Min_cycle;Max_cycle;Signal;HPM_P1;HPM_P2
2023/04/24 00:00:14;;;;;;;71.20;68.22;;;;;;;11.76;80.99;97137.75;5018015;28;20033;-76
2023/04/24 00:02:44;;;;;;;72.72;69.50;;;;;;;11.67;81.82;97142.88;4971070;28;20027;-75
2023/04/24 00:05:10;;;;;;;70.30;67.22;;;;;;;11.66;81.88;97127.78;4973947;28;20048;-75
2023/04/24 00:07:35;;;;;;;68.80;65.90;;;;;;;11.86;81.40;97147.66;4975026;28;20030;-75
2023/04/24 00:10:01;;;;;;;73.43;70.32;;;;;;;11.75;81.91;97152.28;4985895;28;20062;-75
2023/04/24 00:12:26;;;;;;;72.20;69.20;;;;;;;11.80;81.96;97149.56;4984708;28;20034;-76
2023/04/24 00:14:52;;;;;;;76.22;72.82;;;;;;;11.96;80.90;97153.00;4987428;28;20125;-75
2023/04/24 00:17:21;;;;;;;78.10;74.65;;;;;;;11.64;82.24;97139.91;4992371;28;20022;-75
2023/04/24 00:19:47;;;;;;;75.97;72.78;;;;;;;11.59;82.31;97137.25;4987298;28;20033;-75
2023/04/24 00:22:15;;;;;;;76.80;73.40;;;;;;;11.82;81.80;97142.00;4997247;28;20108;-75
2023/04/24 00:24:40;;;;;;;77.28;73.97;;;;;;;11.76;82.31;97137.75;4988036;28;20046;-75
2023/04/24 00:27:06;;;;;;;75.80;72.53;;;;;;;11.62;82.88;97132.09;4984322;28;20026;-75
2023/04/24 00:29:31;;;;;;;77.18;73.80;;;;;;;11.81;81.95;97124.19;4991519;28;20034;-75
2023/04/24 00:31:57;;;;;;;80.05;76.57;;;;;;;11.69;82.25;97124.53;4976663;28;20030;-76
2023/04/24 00:34:22;;;;;;;84.80;81.20;;;;;;;11.16;83.66;97135.22;4988330;28;20129;-75
2023/04/24 00:36:51;;;;;;;80.88;77.35;;;;;;;11.41;82.71;97127.84;5008951;28;20371;-76
2023/04/24 00:39:21;;;;;;;80.10;76.32;;;;;;;11.05;83.41;97132.56;4985791;28;20406;-76
2023/04/24 00:41:47;;;;;;;81.22;77.53;;;;;;;10.83;84.37;97137.44;4983668;28;20030;-75
2023/04/24 00:44:14;;;;;;;83.20;79.53;;;;;;;11.16;84.10;97137.91;5004480;28;20026;-74
2023/04/24 00:46:39;;;;;;;81.65;78.10;;;;;;;11.61;82.60;97143.16;4992210;28;20149;-74
2023/04/24 00:49:05;;;;;;;80.30;76.70;;;;;;;11.37;83.18;97144.88;4988589;28;20113;-74
2023/04/24 00:51:32;;;;;;;81.38;77.93;;;;;;;11.47;82.90;97150.22;5006523;28;20022;-74
2023/04/24 00:53:58;;;;;;;84.82;81.13;;;;;;;11.06;83.98;97138.78;4960697;28;20046;-74
2023/04/24 00:56:23;;;;;;;84.60;80.80;;;;;;;11.03;84.31;97137.44;4993247;28;20034;-74
2023/04/24 00:58:49;;;;;;;85.30;81.60;;;;;;;11.33;83.84;97138.41;4977051;28;20033;-74
2023/04/24 01:01:14;;;;;;;80.43;77.00;;;;;;;11.43;83.30;97138.38;4989745;28;20115;-75
2023/04/24 01:03:40;;;;;;;78.32;74.97;;;;;;;11.52;82.84;97139.44;4985809;28;20395;-75
2023/04/24 01:06:06;;;;;;;79.88;75.93;;;;;;;11.30;82.23;97139.78;4999411;28;20038;-75
2023/04/24 01:08:32;;;;;;;77.10;73.85;;;;;;;11.35;82.51;97134.38;5004945;28;20400;-75
2023/04/24 01:10:58;;;;;;;79.28;75.55;;;;;;;11.46;82.07;97138.63;4989728;28;20033;-73
2023/04/24 01:13:24;;;;;;;76.75;73.45;;;;;;;11.38;82.56;97146.50;4985705;28;20112;-74
2023/04/24 01:15:49;;;;;;;76.50;73.10;;;;;;;11.48;82.56;97141.06;4983142;28;20045;-73
2023/04/24 01:18:14;;;;;;;75.10;71.93;;;;;;;11.54;82.31;97143.47;5003485;28;20034;-74
2023/04/24 01:20:43;;;;;;;74.68;71.35;;;;;;;11.70;81.44;97146.91;5008565;28;20088;-73
2023/04/24 01:23:09;;;;;;;70.53;67.60;;;;;;;11.71;81.71;97135.06;5002634;28;20118;-74
2023/04/24 01:25:35;;;;;;;80.60;77.13;;;;;;;11.47;82.50;97136.75;5005877;28;20037;-74
2023/04/24 01:28:00;;;;;;;77.53;73.93;;;;;;;11.70;81.98;97133.44;4985405;28;20464;-74
2023/04/24 01:30:26;;;;;;;78.43;75.00;;;;;;;11.55;82.58;97128.88;5009861;28;20049;-74
2023/04/24 01:32:52;;;;;;;79.53;76.13;;;;;;;11.69;82.31;97134.53;4976151;28;20037;-74
2023/04/24 01:35:18;;;;;;;77.88;74.47;;;;;;;11.48;82.89;97132.97;4962656;28;20042;-75
2023/04/24 01:37:44;;;;;;;76.55;73.22;;;;;;;11.58;82.88;97127.53;4988206;28;20026;-78
2023/04/24 01:40:10;;;;;;;82.00;78.45;;;;;;;11.56;82.54;97130.50;4977382;28;20034;-77
2023/04/24 01:42:35;;;;;;;81.80;78.05;;;;;;;11.50;83.25;97128.13;4989501;28;20109;-78
2023/04/24 01:45:03;;;;;;;81.68;77.97;;;;;;;11.29;82.99;97124.69;4982555;28;20037;-77
2023/04/24 01:47:30;;;;;;;83.55;79.95;;;;;;;11.25;83.44;97120.13;5004702;28;20041;-77
2023/04/24 01:49:56;;;;;;;82.07;78.35;;;;;;;11.47;83.17;97115.19;4985337;28;20053;-77
2023/04/24 01:52:22;;;;;;;77.65;74.28;;;;;;;11.60;82.67;97118.06;4962321;28;20027;-78
2023/04/24 01:54:47;;;;;;;78.80;75.30;;;;;;;11.52;83.12;97109.78;4989493;28;20140;-78
2023/04/24 01:57:13;;;;;;;82.38;78.82;;;;;;;11.18;83.95;97125.78;4984542;28;20025;-78
2023/04/24 01:59:40;;;;;;;81.03;77.47;;;;;;;11.13;84.00;97106.16;4988308;28;20117;-78
2023/04/24 02:02:06;;;;;;;83.60;79.70;;;;;;;11.40;83.47;97122.75;5011279;28;20105;-76
2023/04/24 02:04:31;;;;;;;81.05;77.57;;;;;;;11.30;84.16;97123.59;4990584;28;20026;-77
2023/04/24 02:06:57;;;;;;;77.47;73.68;;;;;;;11.26;83.22;97119.03;4985882;28;20072;-75
2023/04/24 02:09:23;;;;;;;78.32;74.72;;;;;;;11.24;83.84;97116.63;4982225;28;20034;-75
2023/04/24 02:11:49;;;;;;;81.60;78.00;;;;;;;11.20;83.76;97117.44;5002693;28;20026;-77
2023/04/24 02:14:16;;;;;;;80.47;76.88;;;;;;;11.52;82.82;97115.16;5007210;28;20518;-76
2023/04/24 02:16:42;;;;;;;81.47;77.88;;;;;;;11.16;84.94;97110.97;4963191;28;20030;-77
2023/04/24 02:19:07;;;;;;;80.28;76.68;;;;;;;11.41;83.17;97109.00;4961792;28;20161;-77
2023/04/24 02:21:33;;;;;;;82.57;78.85;;;;;;;11.05;84.53;97115.59;4970338;28;20033;-77
2023/04/24 02:23:58;;;;;;;81.30;77.63;;;;;;;11.03;85.02;97112.38;4979877;28;20053;-77
2023/04/24 02:26:24;;;;;;;80.60;76.93;;;;;;;11.29;84.19;97102.31;4982246;28;20141;-77
2023/04/24 02:28:50;;;;;;;79.70;75.70;;;;;;;11.15;84.40;97098.59;5012955;28;20034;-77
2023/04/24 02:31:18;;;;;;;78.43;74.88;;;;;;;11.05;84.83;97089.47;4982958;28;20058;-78
2023/04/24 02:33:43;;;;;;;75.97;72.47;;;;;;;10.99;85.73;97106.72;5009073;28;20049;-77
2023/04/24 02:36:09;;;;;;;75.97;72.38;;;;;;;10.99;85.24;97095.94;4997105;28;20033;-77
2023/04/24 02:38:34;;;;;;;78.28;74.78;;;;;;;11.06;85.23;97085.69;4979993;28;20042;-75
2023/04/24 02:41:00;;;;;;;79.88;76.28;;;;;;;11.37;83.96;97086.38;4988313;28;20030;-75
2023/04/24 02:43:26;;;;;;;80.18;76.55;;;;;;;11.04;85.10;97087.84;4987416;28;20503;-76
2023/04/24 02:45:51;;;;;;;76.80;73.30;;;;;;;11.34;83.30;97080.75;4993002;28;20365;-76
2023/04/24 02:48:17;;;;;;;75.75;72.45;;;;;;;11.04;84.34;97079.75;5006441;28;20045;-75
2023/04/24 02:50:42;;;;;;;74.35;71.03;;;;;;;11.20;84.08;97082.41;4975976;28;20050;-74
2023/04/24 02:53:07;;;;;;;73.88;70.68;;;;;;;11.36;82.49;97078.56;4992161;28;20042;-76
2023/04/24 02:55:33;;;;;;;74.40;71.10;;;;;;;11.19;83.51;97078.09;4976736;28;20082;-76
2023/04/24 02:57:58;;;;;;;71.45;68.35;;;;;;;11.26;83.74;97075.91;4988757;28;20129;-77
2023/04/24 03:00:24;;;;;;;72.05;68.75;;;;;;;11.07;83.87;97076.53;4984811;28;20029;-75
2023/04/24 03:02:49;;;;;;;79.15;75.65;;;;;;;11.09;83.78;97068.97;4981294;28;20034;-77
2023/04/24 03:05:15;;;;;;;74.28;70.88;;;;;;;11.05;83.87;97081.38;4982266;28;20026;-77
2023/04/24 03:07:40;;;;;;;74.68;71.30;;;;;;;11.24;83.25;97083.47;5000492;28;20079;-76
2023/04/24 03:10:06;;;;;;;73.32;69.80;;;;;;;10.93;84.09;97078.19;4983869;28;20430;-76
2023/04/24 03:12:32;;;;;;;71.47;68.18;;;;;;;11.15;83.72;97072.47;4995348;28;20086;-76
2023/04/24 03:14:57;;;;;;;74.07;70.88;;;;;;;11.13;83.81;97073.81;5000195;28;20444;-77
2023/04/24 03:17:23;;;;;;;70.40;67.10;;;;;;;11.16;83.98;97073.25;4979217;28;20503;-77
2023/04/24 03:19:48;;;;;;;70.20;67.20;;;;;;;11.07;84.22;97076.53;4975102;28;20022;-77
2023/04/24 03:22:13;;;;;;;72.55;69.25;;;;;;;11.20;83.30;97068.94;4975066;28;20034;-77
2023/04/24 03:24:40;;;;;;;70.18;67.13;;;;;;;11.07;83.41;97070.31;4983912;28;20029;-76
2023/04/24 03:27:06;;;;;;;70.20;67.10;;;;;;;11.05;83.37;97072.50;4997414;28;20034;-77
2023/04/24 03:29:55;;;;;;;69.18;66.07;;;;;;;10.96;83.19;97066.88;4985405;28;20022;-76
2023/04/24 03:32:23;;;;;;;67.80;64.80;;;;;;;11.18;82.87;97065.72;4987887;28;20030;-76
2023/04/24 03:34:49;;;;;;;68.85;65.82;;;;;;;10.93;83.17;97070.09;5003216;28;20452;-77
2023/04/24 03:37:15;;;;;;;66.28;63.42;;;;;;;11.20;82.21;97074.34;4965410;28;20033;-76
2023/04/24 03:39:46;;;;;;;67.40;64.50;;;;;;;10.81;83.47;97076.84;4967132;28;20087;-76
2023/04/24 03:42:14;;;;;;;69.18;65.88;;;;;;;10.90;83.49;97078.72;4981673;28;20034;-76
2023/04/24 03:44:50;;;;;;;68.93;65.53;;;;;;;11.00;82.88;97076.00;4968178;28;20038;-76
2023/04/24 03:47:17;;;;;;;64.32;61.33;;;;;;;10.89;82.85;97079.81;4986736;28;20034;-76
2023/04/24 03:49:42;;;;;;;67.03;64.00;;;;;;;10.93;83.23;97078.19;4980204;28;20081;-76
2023/04/24 03:52:09;;;;;;;63.33;60.42;;;;;;;10.80;83.30;97081.47;4982302;28;20125;-77
2023/04/24 03:54:34;;;;;;;62.22;59.53;;;;;;;10.93;82.82;97086.25;4980122;28;20261;-77
2023/04/24 03:57:01;;;;;;;69.03;65.65;;;;;;;10.80;82.79;97076.06;5014656;28;20061;-76
2023/04/24 03:59:28;;;;;;;68.32;65.20;;;;;;;10.78;82.95;97077.44;4981567;28;20026;-76
2023/04/24 04:02:05;;;;;;;66.22;63.13;;;;;;;10.77;83.03;97082.00;4988191;28;20125;-75
2023/04/24 04:04:31;;;;;;;67.53;64.53;;;;;;;10.86;82.96;97085.75;4993594;28;20140;-76
2023/04/24 04:07:00;;;;;;;65.03;62.00;;;;;;;10.96;82.14;97084.91;4978127;28;20045;-76
2023/04/24 04:09:27;;;;;;;63.65;60.72;;;;;;;10.92;82.74;97083.84;4998718;28;20034;-77
2023/04/24 04:11:52;;;;;;;63.90;60.90;;;;;;;10.52;84.12;97084.75;4988715;28;20018;-77
2023/04/24 04:14:17;;;;;;;64.68;61.47;;;;;;;10.82;83.48;97083.88;4987067;28;20049;-77
2023/04/24 04:16:46;;;;;;;61.58;58.78;;;;;;;10.68;83.11;97077.44;4975967;28;20026;-76
2023/04/24 04:19:12;;;;;;;59.55;56.95;;;;;;;10.87;82.75;97068.53;4980005;28;20039;-76
2023/04/24 04:21:38;;;;;;;62.97;60.13;;;;;;;10.92;82.71;97078.47;4977701;28;20400;-76
2023/04/24 04:24:23;;;;;;;60.83;58.03;;;;;;;10.77;83.07;97076.63;4993335;28;20563;-75
2023/04/24 04:26:50;;;;;;;62.85;59.92;;;;;;;10.61;83.62;97085.81;5006113;28;20030;-76
2023/04/24 04:29:24;;;;;;;65.45;62.42;;;;;;;10.34;84.44;97077.19;4985694;28;20025;-75
2023/04/24 04:31:50;;;;;;;66.22;62.83;;;;;;;10.63;84.26;97090.91;4997219;28;20036;-76
2023/04/24 04:34:16;;;;;;;68.68;65.47;;;;;;;10.87;83.12;97081.97;4967921;28;20018;-76
2023/04/24 04:36:42;;;;;;;67.35;64.18;;;;;;;10.81;82.61;97074.97;4984700;28;20121;-77
2023/04/24 04:39:21;;;;;;;63.03;60.17;;;;;;;10.70;83.48;97086.84;5001983;28;20419;-74
2023/04/24 04:42:09;;;;;;;63.67;60.75;;;;;;;10.82;82.60;97090.06;4992877;28;20105;-74
2023/04/24 04:44:40;;;;;;;68.10;64.50;;;;;;;10.70;83.31;97084.16;4993441;28;20130;-73
2023/04/24 04:47:08;;;;;;;64.43;61.22;;;;;;;10.73;82.77;97090.91;4987720;28;20042;-75
2023/04/24 04:49:35;;;;;;;60.65;57.88;;;;;;;10.82;81.96;97089.25;4982290;28;20395;-74
2023/04/24 04:52:01;;;;;;;60.15;57.33;;;;;;;10.88;82.28;97088.97;4984270;28;20380;-74
2023/04/24 04:54:27;;;;;;;59.90;57.20;;;;;;;11.01;81.51;97093.81;4985785;28;20030;-77
2023/04/24 04:56:54;;;;;;;60.45;57.65;;;;;;;10.79;82.03;97096.00;4977323;28;20034;-74
2023/04/24 04:59:20;;;;;;;59.53;56.83;;;;;;;11.01;81.59;97085.72;4977663;28;20030;-75
2023/04/24 05:01:48;;;;;;;61.70;58.70;;;;;;;10.76;81.60;97091.16;4993385;28;20026;-77
2023/04/24 05:04:15;;;;;;;61.28;58.45;;;;;;;10.79;81.73;97098.69;5006343;28;20502;-74
2023/04/24 05:06:40;;;;;;;58.63;55.90;;;;;;;10.99;80.83;97108.63;4977231;28;20038;-75
2023/04/24 05:09:07;;;;;;;59.70;56.80;;;;;;;10.97;81.46;97097.28;4977818;28;20041;-76
2023/04/24 05:11:39;;;;;;;65.40;62.50;;;;;;;10.72;82.13;97100.84;4989364;28;20045;-76
2023/04/24 05:14:05;;;;;;;60.53;57.55;;;;;;;11.13;81.13;97104.28;5006160;28;20041;-76
2023/04/24 05:16:40;;;;;;;59.03;56.42;;;;;;;11.13;80.61;97106.97;5001993;28;20029;-75
2023/04/24 05:19:07;;;;;;;64.07;61.17;;;;;;;10.77;82.42;97122.41;4981762;28;20084;-75
2023/04/24 05:21:36;;;;;;;63.58;60.53;;;;;;;11.07;80.83;97119.63;4987144;28;20030;-75
2023/04/24 05:24:01;;;;;;;60.75;57.70;;;;;;;11.16;80.52;97121.75;4989346;28;20053;-75
2023/04/24 05:26:47;;;;;;;61.50;58.50;;;;;;;11.02;81.06;97116.13;4993952;28;20034;-75
2023/04/24 05:29:14;;;;;;;60.90;58.20;;;;;;;10.95;81.45;97115.63;4982433;28;20380;-74
2023/04/24 05:31:41;;;;;;;58.90;56.00;;;;;;;11.06;80.44;97122.63;5017127;22;20033;-74
2023/04/24 05:34:07;;;;;;;57.65;54.75;;;;;;;11.05;80.78;97120.97;4995321;28;20042;-72
2023/04/24 05:36:32;;;;;;;59.10;56.50;;;;;;;11.10;80.21;97116.41;4995619;28;20022;-72
2023/04/24 05:38:58;;;;;;;57.90;54.83;;;;;;;11.20;79.90;97122.84;4997696;28;20071;-73
2023/04/24 05:41:24;;;;;;;60.33;57.67;;;;;;;10.98;81.29;97126.66;5032737;28;20033;-71
2023/04/24 05:43:50;;;;;;;59.03;56.10;;;;;;;11.11;80.27;97131.47;5030356;28;20050;-72
2023/04/24 05:46:16;;;;;;;59.85;57.05;;;;;;;10.98;80.74;97142.81;4986129;28;20026;-70
2023/04/24 05:48:41;;;;;;;59.15;56.50;;;;;;;11.11;80.28;97136.84;5013060;28;20034;-72
2023/04/24 05:51:07;;;;;;;57.20;54.70;;;;;;;11.19;79.89;97129.28;4995396;28;20510;-73
2023/04/24 05:53:32;;;;;;;58.35;55.40;;;;;;;11.22;80.01;97131.44;4994910;28;20034;-72
2023/04/24 05:55:58;;;;;;;60.58;57.85;;;;;;;10.84;81.53;97136.38;4991138;28;20038;-71
2023/04/24 05:58:24;;;;;;;56.38;53.88;;;;;;;11.28;79.61;97141.13;4996192;28;20099;-73
2023/04/24 06:00:49;;;;;;;57.83;55.22;;;;;;;11.16;80.33;97132.53;4962926;28;20087;-73
2023/04/24 06:03:16;;;;;;;59.80;57.15;;;;;;;11.04;80.47;97130.94;4999253;28;20034;-73
2023/04/24 06:05:42;;;;;;;56.58;53.90;;;;;;;11.39;79.74;97132.72;4962913;28;20510;-73
2023/04/24 06:08:07;;;;;;;60.25;57.58;;;;;;;11.10;80.57;97124.47;4978795;28;20040;-73
2023/04/24 06:10:36;;;;;;;60.33;57.35;;;;;;;11.17;80.09;97136.84;4994913;28;20021;-73
2023/04/24 06:13:02;;;;;;;55.55;52.95;;;;;;;11.40;79.68;97133.53;4978508;28;20018;-73
2023/04/24 06:15:30;;;;;;;58.17;55.58;;;;;;;11.00;80.48;97135.28;4994595;28;20394;-72
2023/04/24 06:17:59;;;;;;;56.88;54.38;;;;;;;11.19;80.35;97142.78;4959735;28;20045;-73
2023/04/24 06:20:25;;;;;;;58.70;55.92;;;;;;;10.98;80.42;97140.13;4964267;28;20391;-73
2023/04/24 06:22:51;;;;;;;53.95;51.45;;;;;;;10.87;79.89;97152.00;4978526;28;20037;-78
2023/04/24 06:25:16;;;;;;;55.55;52.95;;;;;;;10.61;79.81;97153.09;5008293;28;20029;-73
2023/04/24 06:27:42;;;;;;;58.25;55.75;;;;;;;10.71;81.12;97150.38;4975617;28;20075;-72
2023/04/24 06:30:08;;;;;;;59.05;56.15;;;;;;;10.62;81.17;97143.94;4991365;28;20430;-73
2023/04/24 06:32:34;;;;;;;62.75;59.78;;;;;;;10.43;81.86;97150.97;4994767;28;20029;-73
2023/04/24 06:34:59;;;;;;;65.22;62.22;;;;;;;10.51;81.92;97154.97;5007824;28;20025;-75
2023/04/24 06:37:24;;;;;;;61.60;58.80;;;;;;;10.64;81.45;97157.94;5007664;28;20030;-75
2023/04/24 06:39:50;;;;;;;58.45;55.85;;;;;;;10.62;81.42;97160.09;5025166;28;20056;-72
2023/04/24 06:42:15;;;;;;;59.28;56.67;;;;;;;10.66;80.70;97155.81;4984810;28;20403;-74
2023/04/24 06:44:42;;;;;;;60.75;58.05;;;;;;;10.90;80.71;97167.63;4984896;28;20026;-72
2023/04/24 06:47:13;;;;;;;60.03;57.20;;;;;;;11.23;80.13;97160.00;5007674;28;20454;-73
2023/04/24 06:49:39;;;;;;;54.88;52.65;;;;;;;10.97;79.50;97167.31;4991900;28;20080;-75
2023/04/24 06:52:05;;;;;;;50.20;48.00;;;;;;;10.98;79.64;97168.94;5013913;28;20017;-75
2023/04/24 06:54:31;;;;;;;54.75;52.38;;;;;;;10.83;80.59;97172.47;5012909;28;20151;-77
2023/04/24 06:56:57;;;;;;;49.83;47.72;;;;;;;10.82;79.60;97170.88;4991441;28;20036;-77
2023/04/24 06:59:23;;;;;;;44.03;42.13;;;;;;;10.89;77.63;97176.78;5008056;28;20041;-75
2023/04/24 07:01:49;;;;;;;38.67;36.88;;;;;;;11.17;77.44;97164.63;5013921;28;20101;-75
2023/04/24 07:04:14;;;;;;;37.13;35.53;;;;;;;10.88;77.91;97172.47;5013674;28;20168;-75
2023/04/24 07:06:40;;;;;;;38.03;36.42;;;;;;;11.13;77.06;97153.56;4997565;28;20029;-75
2023/04/24 07:09:05;;;;;;;33.40;32.03;;;;;;;10.69;77.74;97171.41;5031524;28;20041;-75
2023/04/24 07:11:31;;;;;;;39.90;38.10;;;;;;;10.57;78.20;97173.53;4992098;28;20076;-75
2023/04/24 07:13:56;;;;;;;41.00;39.35;;;;;;;10.83;77.92;97182.44;4994016;28;20049;-75
2023/04/24 07:16:22;;;;;;;41.33;39.53;;;;;;;11.20;77.23;97188.34;4991080;28;20125;-75
2023/04/24 07:18:47;;;;;;;37.85;36.22;;;;;;;10.95;77.29;97175.69;4994156;28;20117;-75
2023/04/24 07:21:12;;;;;;;41.05;39.25;;;;;;;10.95;77.36;97186.47;4958562;28;20022;-75
2023/04/24 07:23:38;;;;;;;32.88;31.48;;;;;;;11.20;76.28;97193.72;4987139;28;20117;-75
2023/04/24 07:26:03;;;;;;;34.50;33.10;;;;;;;11.09;76.79;97192.91;4994092;28;20395;-75
2023/04/24 07:28:31;;;;;;;43.10;41.22;;;;;;;11.27;77.58;97193.44;4978038;28;20030;-74
2023/04/24 07:30:57;;;;;;;37.88;36.22;;;;;;;11.77;75.52;97194.09;4994009;28;20076;-75
2023/04/24 07:33:22;;;;;;;21.63;20.73;;;;;;;11.75;74.27;97196.28;5024384;28;20474;-74
2023/04/24 07:35:47;;;;;;;18.75;17.85;;;;;;;11.87;72.53;97204.03;5013541;28;20099;-75
2023/04/24 07:38:13;;;;;;;8.23;7.82;;;;;;;11.88;71.43;97194.06;4997214;28;20025;-75
2023/04/24 07:40:38;;;;;;;2.58;2.38;;;;;;;11.51;69.40;97205.22;5013611;28;20052;-76
2023/04/24 07:43:04;;;;;;;2.47;2.28;;;;;;;11.53;67.85;97200.34;5015154;28;20088;-75
2023/04/24 07:45:30;;;;;;;2.40;2.25;;;;;;;11.60;67.59;97200.84;5017360;28;20497;-75
2023/04/24 07:47:56;;;;;;;2.22;1.88;;;;;;;11.38;67.30;97211.19;5022020;28;20025;-76
2023/04/24 07:50:21;;;;;;;2.38;1.58;;;;;;;11.38;65.28;97213.88;4997676;28;20391;-75
2023/04/24 07:52:47;;;;;;;1.67;1.48;;;;;;;11.42;64.96;97213.06;5015099;28;20438;-73
2023/04/24 07:55:12;;;;;;;1.35;1.25;;;;;;;11.21;65.14;97224.16;5021110;28;20029;-75
2023/04/24 07:57:38;;;;;;;2.42;2.22;;;;;;;11.21;66.50;97213.38;4988439;28;20072;-75
2023/04/24 08:00:05;;;;;;;3.45;1.70;;;;;;;11.07;65.74;97219.31;4997549;28;20069;-75
2023/04/24 08:02:36;;;;;;;4.07;2.15;;;;;;;11.71;64.02;97210.59;5003484;28;20117;-75
2023/04/24 08:05:03;;;;;;;5.15;2.47;;;;;;;11.86;60.13;97202.41;5014651;28;20517;-75
2023/04/24 08:07:29;;;;;;;3.05;1.80;;;;;;;12.12;59.78;97217.41;5014929;28;20021;-75
2023/04/24 08:09:54;;;;;;;1.70;1.60;;;;;;;12.43;60.01;97216.16;4980985;28;20411;-75
2023/04/24 08:12:19;;;;;;;3.40;1.92;;;;;;;12.68;59.84;97227.84;5010891;28;20382;-74
2023/04/24 08:14:45;;;;;;;2.47;1.85;;;;;;;11.91;58.93;97210.50;5016697;28;20112;-75
2023/04/24 08:17:10;;;;;;;2.72;1.60;;;;;;;12.09;58.05;97220.66;5000473;28;20479;-75
2023/04/24 08:19:36;;;;;;;2.45;1.80;;;;;;;11.99;58.76;97228.81;5016717;28;20034;-74
2023/04/24 08:22:01;;;;;;;3.38;1.95;;;;;;;11.41;59.67;97232.22;5016457;28;20522;-75
2023/04/24 08:24:26;;;;;;;2.50;1.90;;;;;;;11.58;60.24;97232.69;5034096;28;20045;-74
2023/04/24 08:26:53;;;;;;;3.70;1.80;;;;;;;11.48;60.01;97227.34;5034284;28;20029;-74
2023/04/24 08:29:19;;;;;;;3.00;1.90;;;;;;;11.62;59.70;97239.97;5000480;28;20071;-75
2023/04/24 08:31:44;;;;;;;2.00;1.80;;;;;;;11.48;60.23;97238.91;5016373;28;20056;-74
2023/04/24 08:34:10;;;;;;;2.95;1.85;;;;;;;11.69;59.36;97239.72;5016199;28;20107;-75
2023/04/24 08:36:36;;;;;;;1.80;1.70;;;;;;;11.63;59.60;97240.78;5034123;28;20056;-75
2023/04/24 08:39:01;;;;;;;3.58;2.20;;;;;;;11.58;59.29;97251.56;5016378;28;20461;-76
2023/04/24 08:41:27;;;;;;;2.90;1.83;;;;;;;11.56;59.80;97251.03;5033913;28;20033;-75
2023/04/24 08:43:52;;;;;;;3.13;1.90;;;;;;;11.43;59.77;97257.00;5016044;28;20045;-73
2023/04/24 08:46:19;;;;;;;2.40;2.00;;;;;;;11.60;60.01;97246.69;5000571;28;20029;-77
2023/04/24 08:48:45;;;;;;;2.22;1.80;;;;;;;11.35;60.02;97250.28;5000132;28;20128;-77
2023/04/24 08:51:11;;;;;;;3.67;2.10;;;;;;;11.16;61.38;97267.25;5000104;28;20021;-76
2023/04/24 08:53:37;;;;;;;3.17;1.77;;;;;;;11.15;59.71;97268.38;5016104;28;20116;-76
2023/04/24 08:56:03;;;;;;;2.55;1.60;;;;;;;11.36;61.57;97261.88;5015048;28;20033;-76
2023/04/24 08:58:29;;;;;;;2.72;2.20;;;;;;;11.31;59.82;97259.19;4996782;28;20042;-75
2023/04/24 09:00:55;;;;;;;2.03;1.83;;;;;;;11.19;60.75;97272.13;4996577;28;20076;-77
2023/04/24 09:03:20;;;;;;;2.78;2.10;;;;;;;11.09;60.84;97257.59;5032295;28;20033;-77
2023/04/24 09:05:49;;;;;;;4.15;1.83;;;;;;;11.50;58.93;97268.31;5032605;28;20033;-77
2023/04/24 09:08:16;;;;;;;2.55;2.03;;;;;;;11.71;58.34;97253.75;5032381;28;20076;-75
2023/04/24 09:10:41;;;;;;;3.03;1.92;;;;;;;11.86;61.17;97259.06;5015683;28;20017;-75
2023/04/24 09:13:09;;;;;;;2.20;1.85;;;;;;;11.85;59.57;97262.88;5015471;28;20079;-75
2023/04/24 09:15:35;;;;;;;2.33;1.90;;;;;;;11.90;58.83;97257.47;5033367;28;20036;-75
2023/04/24 09:18:01;;;;;;;3.83;1.83;;;;;;;11.76;60.21;97267.22;4999343;28;20029;-74
2023/04/24 09:20:26;;;;;;;2.25;1.77;;;;;;;11.76;59.13;97251.81;5035127;28;20104;-75
2023/04/24 09:22:55;;;;;;;2.15;1.70;;;;;;;12.17;58.89;97255.16;4999141;28;20036;-76
2023/04/24 09:25:21;;;;;;;3.63;2.10;;;;;;;12.11;58.91;97253.56;5015462;28;20470;-76
2023/04/24 09:27:46;;;;;;;2.92;1.85;;;;;;;11.92;59.23;97254.47;4999153;28;20402;-76
2023/04/24 09:30:12;;;;;;;2.83;1.90;;;;;;;12.13;59.23;97267.63;5002203;28;20026;-74
2023/04/24 09:32:37;;;;;;;2.90;1.88;;;;;;;12.11;58.69;97258.97;5008019;28;20029;-74
2023/04/24 09:35:10;;;;;;;1.88;1.70;;;;;;;12.06;57.88;97256.31;5008959;28;20453;-74
2023/04/24 09:37:43;;;;;;;1.77;1.67;;;;;;;11.91;58.80;97269.84;5004531;28;20436;-75
2023/04/24 09:40:12;;;;;;;4.32;2.67;;;;;;;11.67;59.17;97263.41;4983320;28;20037;-76
2023/04/24 09:42:38;;;;;;;2.80;2.05;;;;;;;11.49;59.19;97274.78;5005597;28;20022;-75
2023/04/24 09:45:08;;;;;;;2.80;2.20;;;;;;;11.61;59.68;97259.13;5008672;28;20509;-75
2023/04/24 09:47:38;;;;;;;2.53;1.75;;;;;;;11.48;60.34;97265.88;4989523;28;20683;-76
2023/04/24 09:50:15;;;;;;;2.30;2.03;;;;;;;11.62;60.17;97272.31;5003621;28;20049;-75
2023/04/24 09:52:45;;;;;;;3.08;1.83;;;;;;;11.38;59.37;97260.53;5006876;28;20057;-75
2023/04/24 09:55:19;;;;;;;4.85;3.20;;;;;;;11.41;59.98;97267.25;4991493;28;20440;-75
2023/04/24 09:57:55;;;;;;;2.67;2.15;;;;;;;11.31;59.41;97269.97;5008508;28;20038;-75
2023/04/24 10:00:22;;;;;;;3.25;1.90;;;;;;;11.63;60.23;97267.75;4987843;28;20124;-75
2023/04/24 10:02:54;;;;;;;3.00;1.90;;;;;;;11.97;61.11;97284.91;4985196;28;20018;-75
2023/04/24 10:05:23;;;;;;;3.00;1.90;;;;;;;11.87;58.69;97274.19;4988326;28;20046;-75
2023/04/24 10:07:49;;;;;;;2.70;2.05;;;;;;;11.66;58.73;97278.00;4992045;28;20061;-75
2023/04/24 10:10:15;;;;;;;3.10;2.10;;;;;;;11.95;60.35;97265.50;5012699;28;20168;-73
2023/04/24 10:12:40;;;;;;;1.88;1.77;;;;;;;11.80;59.20;97268.28;4994856;28;20130;-74
2023/04/24 10:15:07;;;;;;;2.55;1.98;;;;;;;11.84;60.00;97266.63;5022541;28;20048;-73
2023/04/24 10:17:32;;;;;;;2.97;2.00;;;;;;;12.06;60.72;97266.28;5014614;28;20057;-74
2023/04/24 10:19:58;;;;;;;4.28;2.42;;;;;;;11.43;62.88;97290.19;5014586;28;20495;-73
2023/04/24 10:22:24;;;;;;;2.45;2.03;;;;;;;11.24;62.58;97280.22;5014238;28;20494;-73
2023/04/24 10:24:50;;;;;;;2.60;2.40;;;;;;;10.99;63.62;97300.69;5014239;28;20510;-73
2023/04/24 10:27:16;;;;;;;5.55;2.40;;;;;;;11.03;63.52;97307.16;4998052;28;20048;-74
2023/04/24 10:29:43;;;;;;;2.75;1.90;;;;;;;10.85;63.33;97315.75;5001630;28;20026;-73
2023/04/24 10:32:09;;;;;;;3.65;1.70;;;;;;;11.05;62.85;97321.19;4983394;28;20160;-73
2023/04/24 10:34:35;;;;;;;1.77;1.50;;;;;;;10.97;61.85;97324.38;4978330;28;20060;-74
2023/04/24 10:37:02;;;;;;;2.35;1.10;;;;;;;11.08;62.14;97309.84;5017750;28;20481;-73
2023/04/24 10:39:27;;;;;;;1.42;1.27;;;;;;;11.85;60.18;97303.34;4994617;28;20056;-73
2023/04/24 10:41:53;;;;;;;4.32;1.33;;;;;;;11.79;61.34;97315.19;5011573;28;20021;-74
2023/04/24 10:44:22;;;;;;;1.48;1.20;;;;;;;12.09;60.40;97315.09;5003551;28;20091;-73
2023/04/24 10:46:53;;;;;;;1.27;1.17;;;;;;;12.18;59.74;97308.06;4995191;28;20025;-74
2023/04/24 10:49:31;;;;;;;1.20;1.10;;;;;;;12.05;57.96;97319.44;4994449;28;20073;-74
2023/04/24 10:52:01;;;;;;;1.50;1.20;;;;;;;12.01;54.35;97322.97;5002078;28;20041;-74
2023/04/24 10:54:40;;;;;;;1.25;1.15;;;;;;;11.90;55.19;97322.22;5013074;28;20041;-74
2023/04/24 10:57:19;;;;;;;1.30;1.20;;;;;;;12.20;55.03;97324.00;4983805;28;20564;-74
2023/04/24 10:59:45;;;;;;;3.28;1.20;;;;;;;12.78;55.16;97316.94;5012708;28;20045;-73
2023/04/24 11:02:10;;;;;;;1.42;1.33;;;;;;;12.15;55.04;97319.41;5005386;28;20510;-73
2023/04/24 11:04:36;;;;;;;1.48;1.30;;;;;;;12.29;55.79;97322.34;5034084;28;20042;-73
2023/04/24 11:07:04;;;;;;;1.52;1.42;;;;;;;12.10;56.13;97327.53;5031581;28;20028;-73
2023/04/24 11:09:30;;;;;;;2.60;1.50;;;;;;;12.20;54.48;97324.00;4996793;28;20041;-73
2023/04/24 11:12:10;;;;;;;2.42;1.40;;;;;;;12.11;55.67;97312.94;4994167;28;20087;-73
2023/04/24 11:14:59;;;;;;;4.00;1.30;;;;;;;11.88;56.92;97324.34;4977906;28;20034;-73
2023/04/24 11:17:38;;;;;;;1.67;1.40;;;;;;;11.63;57.68;97313.59;5028055;28;20029;-73
2023/04/24 11:20:06;;;;;;;2.75;1.50;;;;;;;11.57;59.21;97328.97;5017987;28;20041;-73